Time;durP1;ratioP1;P1;durP2;ratioP2;P2;SDS_P1;SDS_P2;PMS_P1;PMS_P2;Temp;Humidity;BMP_temperature;BMP_pressure;BME280_temperature;BME280_humidity;BME280_pressure;Samples;Min_cycle;Max_cycle;Signal;HPM_P1;HPM_P2
2023/01/08 00:01:31;;;;;;;;;;;9.00;99.90;;;;;;5088004;28;19938;-72
2023/01/08 00:03:56;;;;;;;;;;;9.00;99.90;;;;;;5088389;28;19923;-71
2023/01/08 00:06:22;;;;;;;;;;;9.00;99.90;;;;;;5088254;28;19912;-71
2023/01/08 00:08:48;;;;;;;;;;;9.00;99.90;;;;;;5088806;28;20365;-71
2023/01/08 00:11:13;;;;;;;;;;;9.00;99.90;;;;;;5088484;28;20553;-71
2023/01/08 00:13:39;;;;;;;;;;;9.00;99.90;;;;;;5086984;28;19920;-71
2023/01/08 00:16:06;;;;;;;;;;;9.00;99.90;;;;;;5074929;28;19923;-70
2023/01/08 00:18:31;;;;;;;;;;;9.00;99.90;;;;;;5067904;28;19912;-71
2023/01/08 00:20:57;;;;;;;;;;;9.00;99.90;;;;;;5068196;28;19912;-70
2023/01/08 00:23:23;;;;;;;;;;;9.00;99.90;;;;;;5067552;28;19912;-71
2023/01/08 00:25:49;;;;;;;;;;;9.00;99.90;;;;;;5068337;28;20007;-70
2023/01/08 00:28:15;;;;;;;;;;;9.00;99.90;;;;;;5083507;28;19916;-71
2023/01/08 00:30:41;;;;;;;;;;;9.00;99.90;;;;;;5088171;28;19926;-71
2023/01/08 00:33:06;;;;;;;;;;;9.00;99.90;;;;;;5088451;28;19912;-71
2023/01/08 00:35:32;;;;;;;;;;;9.00;99.90;;;;;;5088064;28;19912;-70
2023/01/08 00:37:57;;;;;;;;;;;9.00;99.90;;;;;;5087692;28;20436;-72
2023/01/08 00:40:23;;;;;;;;;;;9.00;99.90;;;;;;5087328;28;19934;-71
2023/01/08 00:42:48;;;;;;;;;;;9.00;99.90;;;;;;5088260;28;20069;-71
2023/01/08 00:45:14;;;;;;;;;;;9.00;99.90;;;;;;5086232;28;20378;-72
2023/01/08 00:47:39;;;;;;;;;;;9.00;99.90;;;;;;5067705;28;19912;-71
2023/01/08 00:50:05;;;;;;;;;;;9.00;99.90;;;;;;5067481;28;19924;-71
2023/01/08 00:52:30;;;;;;;;;;;9.00;99.90;;;;;;5067750;28;19913;-70
2023/01/08 00:54:56;;;;;;;;;;;9.00;99.90;;;;;;5067173;28;20296;-71
2023/01/08 00:57:21;;;;;;;;;;;9.00;99.90;;;;;;5074962;28;19922;-71
2023/01/08 00:59:47;;;;;;;;;;;9.00;99.90;;;;;;5087518;28;19918;-71
2023/01/08 01:02:13;;;;;;;;;;;9.00;99.90;;;;;;5087649;28;19911;-71
2023/01/08 01:04:38;;;;;;;;;;;9.00;99.90;;;;;;5086149;28;20436;-71
2023/01/08 01:07:04;;;;;;;;;;;9.00;99.90;;;;;;5067515;28;19916;-71
2023/01/08 01:09:29;;;;;;;;;;;9.00;99.90;;;;;;5066668;28;19920;-70
2023/01/08 01:11:55;;;;;;;;;;;9.10;99.90;;;;;;5066844;28;20545;-71
2023/01/08 01:14:20;;;;;;;;;;;9.00;99.90;;;;;;5066907;28;19966;-71
2023/01/08 01:16:47;;;;;;;;;;;9.00;99.90;;;;;;5062187;28;20428;-71
2023/01/08 01:19:13;;;;;;;;;;;9.00;99.90;;;;;;5066831;28;19962;-71
2023/01/08 01:21:38;;;;;;;;;;;9.10;99.90;;;;;;5067217;28;20473;-71
2023/01/08 01:24:05;;;;;;;;;;;9.00;99.90;;;;;;5067152;28;20005;-71
2023/01/08 01:26:31;;;;;;;;;;;9.00;99.90;;;;;;5068025;28;19939;-71
2023/01/08 01:28:57;;;;;;;;;;;9.00;99.90;;;;;;5086747;28;20280;-71
2023/01/08 01:31:23;;;;;;;;;;;9.10;99.90;;;;;;5086949;28;19919;-70
2023/01/08 01:33:49;;;;;;;;;;;9.10;99.90;;;;;;5087258;28;19912;-71
2023/01/08 01:36:15;;;;;;;;;;;9.00;99.90;;;;;;5077192;28;19947;-71
2023/01/08 01:38:42;;;;;;;;;;;9.10;99.90;;;;;;5066731;28;19925;-71
2023/01/08 01:41:23;;;;;;;;;;;9.00;99.90;;;;;;5066228;28;19919;-71
2023/01/08 01:43:49;;;;;;;;;;;9.00;99.90;;;;;;5065984;28;19912;-71
2023/01/08 01:46:14;;;;;;;;;;;9.00;99.90;;;;;;5065957;28;19920;-71
2023/01/08 01:48:40;;;;;;;;;;;9.00;99.90;;;;;;5064636;28;20297;-72
2023/01/08 01:51:05;;;;;;;;;;;9.10;99.90;;;;;;5064886;28;20002;-70
2023/01/08 01:53:32;;;;;;;;;;;9.00;99.90;;;;;;5064915;28;19909;-71
2023/01/08 01:55:59;;;;;;;;;;;9.00;99.90;;;;;;5066723;28;20462;-71
2023/01/08 01:58:26;;;;;;;;;;;9.00;99.90;;;;;;5083565;28;20374;-71
2023/01/08 02:00:52;;;;;;;;;;;9.00;99.90;;;;;;5086666;28;19908;-72
2023/01/08 02:03:22;;;;;;;;;;;9.10;99.90;;;;;;5085943;28;19913;-71
2023/01/08 02:05:54;;;;;;;;;;;9.00;99.90;;;;;;5080749;28;20365;-72
2023/01/08 02:08:28;;;;;;;;;;;9.10;99.90;;;;;;5066651;28;20012;-72
2023/01/08 02:11:00;;;;;;;;;;;9.00;99.90;;;;;;5066521;28;19912;-71
2023/01/08 02:13:28;;;;;;;;;;;9.00;99.90;;;;;;5066462;28;20011;-70
2023/01/08 02:16:04;;;;;;;;;;;9.00;99.90;;;;;;5066319;28;19913;-71
2023/01/08 02:18:33;;;;;;;;;;;9.00;99.90;;;;;;5065765;28;19916;-71
2023/01/08 02:21:24;;;;;;;;;;;9.10;99.90;;;;;;5065804;28;19916;-71
2023/01/08 02:23:53;;;;;;;;;;;9.00;99.90;;;;;;5063646;28;20266;-71
2023/01/08 02:26:28;;;;;;;;;;;9.00;99.90;;;;;;5065307;28;20562;-71
2023/01/08 02:29:02;;;;;;;;;;;9.00;99.90;;;;;;5060790;28;20361;-72
2023/01/08 02:31:28;;;;;;;;;;;9.00;99.90;;;;;;5086203;28;19940;-72
2023/01/08 02:33:54;;;;;;;;;;;9.10;99.90;;;;;;5067174;28;20034;-71
2023/01/08 02:36:19;;;;;;;;;;;9.00;99.90;;;;;;5065856;28;20448;-71
2023/01/08 02:38:51;;;;;;;;;;;9.00;99.90;;;;;;5066357;28;19998;-72
2023/01/08 02:41:17;;;;;;;;;;;9.00;99.90;;;;;;5066307;28;19943;-72
2023/01/08 02:43:48;;;;;;;;;;;9.00;99.90;;;;;;5065794;28;19916;-72
2023/01/08 02:46:17;;;;;;;;;;;9.00;99.90;;;;;;5066460;28;19917;-72
2023/01/08 02:48:55;;;;;;;;;;;9.00;99.90;;;;;;5066319;28;19923;-71
2023/01/08 02:51:29;;;;;;;;;;;9.00;99.90;;;;;;5065819;28;20577;-71
2023/01/08 02:54:00;;;;;;;;;;;9.00;99.90;;;;;;5065770;28;19913;-71
2023/01/08 02:56:29;;;;;;;;;;;9.00;99.90;;;;;;5066399;28;19913;-71
2023/01/08 02:58:54;;;;;;;;;;;9.00;99.90;;;;;;5086247;28;19924;-71
2023/01/08 03:01:21;;;;;;;;;;;9.00;99.90;;;;;;5089802;28;19908;-71
2023/01/08 03:03:49;;;;;;;;;;;9.00;99.90;;;;;;5089946;28;19912;-72
2023/01/08 03:06:16;;;;;;;;;;;9.00;99.90;;;;;;5080029;28;19944;-72
2023/01/08 03:08:44;;;;;;;;;;;9.00;99.90;;;;;;5068901;28;19912;-71
2023/01/08 03:11:11;;;;;;;;;;;9.00;99.90;;;;;;5069299;28;19957;-71
2023/01/08 03:13:55;;;;;;;;;;;9.00;99.90;;;;;;5069432;28;20634;-71
2023/01/08 03:16:24;;;;;;;;;;;9.00;99.90;;;;;;5064170;28;19912;-72
2023/01/08 03:19:01;;;;;;;;;;;9.00;99.90;;;;;;5069125;28;19912;-71
2023/01/08 03:21:27;;;;;;;;;;;9.00;99.90;;;;;;5069054;28;20377;-71
2023/01/08 03:23:53;;;;;;;;;;;9.00;99.90;;;;;;5068973;28;19912;-71
2023/01/08 03:26:21;;;;;;;;;;;9.00;99.90;;;;;;5068877;28;19919;-72
2023/01/08 03:28:48;;;;;;;;;;;9.00;99.90;;;;;;5089278;28;20506;-71
2023/01/08 03:31:15;;;;;;;;;;;9.00;99.90;;;;;;5089473;28;20023;-71
2023/01/08 03:33:42;;;;;;;;;;;9.00;99.90;;;;;;5089486;28;20399;-72
2023/01/08 03:36:10;;;;;;;;;;;9.00;99.90;;;;;;5080303;28;19912;-70
2023/01/08 03:38:38;;;;;;;;;;;9.00;99.90;;;;;;5069109;28;20003;-70
2023/01/08 03:41:06;;;;;;;;;;;9.00;99.90;;;;;;5068598;28;19912;-71
2023/01/08 03:43:31;;;;;;;;;;;9.00;99.90;;;;;;5068394;28;20000;-70
2023/01/08 03:45:59;;;;;;;;;;;9.00;99.90;;;;;;5068976;28;20016;-71
2023/01/08 03:48:26;;;;;;;;;;;9.00;99.90;;;;;;5068465;28;19920;-70
2023/01/08 03:50:51;;;;;;;;;;;9.00;99.90;;;;;;5068545;28;19908;-71
2023/01/08 03:53:17;;;;;;;;;;;9.00;99.90;;;;;;5068610;28;19923;-70
2023/01/08 03:55:43;;;;;;;;;;;9.00;99.90;;;;;;5068984;28;19951;-72
2023/01/08 03:58:08;;;;;;;;;;;9.00;99.90;;;;;;5070695;28;20420;-71
2023/01/08 04:00:34;;;;;;;;;;;8.90;99.90;;;;;;5088648;28;19916;-70
2023/01/08 04:02:59;;;;;;;;;;;9.00;99.90;;;;;;5087425;28;19912;-72
2023/01/08 04:05:25;;;;;;;;;;;9.00;99.90;;;;;;5085845;28;19916;-71
2023/01/08 04:07:53;;;;;;;;;;;9.00;99.90;;;;;;5068667;28;19990;-72
2023/01/08 04:10:19;;;;;;;;;;;8.90;99.90;;;;;;5067809;28;19912;-71
2023/01/08 04:12:44;;;;;;;;;;;9.00;99.90;;;;;;5068057;28;20015;-71
2023/01/08 04:15:10;;;;;;;;;;;8.90;99.90;;;;;;5068070;28;19920;-71
2023/01/08 04:17:35;;;;;;;;;;;9.00;99.90;;;;;;5067561;28;20527;-71
2023/01/08 04:20:01;;;;;;;;;;;8.90;99.90;;;;;;5067237;28;19912;-71
2023/01/08 04:22:26;;;;;;;;;;;9.00;99.90;;;;;;5061742;28;19909;-72
2023/01/08 04:24:52;;;;;;;;;;;9.00;99.90;;;;;;5059677;28;19916;-72
2023/01/08 04:27:17;;;;;;;;;;;8.90;99.90;;;;;;5075472;28;19958;-72
2023/01/08 04:29:43;;;;;;;;;;;8.90;99.90;;;;;;5080669;28;19909;-71
2023/01/08 04:32:08;;;;;;;;;;;8.90;99.90;;;;;;5067972;28;20348;-72
2023/01/08 04:34:34;;;;;;;;;;;8.90;99.90;;;;;;5067765;28;19952;-71
2023/01/08 04:37:00;;;;;;;;;;;8.90;99.90;;;;;;5067620;28;19912;-71
2023/01/08 04:39:26;;;;;;;;;;;8.90;99.90;;;;;;5067338;28;19924;-72
2023/01/08 04:41:51;;;;;;;;;;;8.90;99.90;;;;;;5067640;28;19916;-72
2023/01/08 04:44:17;;;;;;;;;;;8.90;99.90;;;;;;5067565;28;19912;-72
2023/01/08 04:46:42;;;;;;;;;;;8.90;99.90;;;;;;5067309;28;19923;-72
2023/01/08 04:49:08;;;;;;;;;;;8.90;99.90;;;;;;5066669;28;20651;-71
2023/01/08 04:51:34;;;;;;;;;;;8.90;99.90;;;;;;5067017;28;20011;-70
2023/01/08 04:53:59;;;;;;;;;;;8.90;99.90;;;;;;5067418;28;20003;-71
2023/01/08 04:56:25;;;;;;;;;;;8.90;99.90;;;;;;5067976;28;19958;-71
2023/01/08 04:58:51;;;;;;;;;;;8.90;99.90;;;;;;5087673;28;20347;-72
2023/01/08 05:01:20;;;;;;;;;;;8.90;99.90;;;;;;5087818;28;19966;-70
2023/01/08 05:03:46;;;;;;;;;;;8.90;99.90;;;;;;5087463;28;20010;-72
2023/01/08 05:06:11;;;;;;;;;;;8.90;99.90;;;;;;5076998;28;19962;-70
2023/01/08 05:08:37;;;;;;;;;;;8.90;99.90;;;;;;5067249;28;19913;-71
2023/01/08 05:11:02;;;;;;;;;;;8.90;99.90;;;;;;5067114;28;19989;-71
2023/01/08 05:13:28;;;;;;;;;;;8.90;99.90;;;;;;5067159;28;20612;-71
2023/01/08 05:15:56;;;;;;;;;;;8.90;99.90;;;;;;5062536;28;20025;-71
2023/01/08 05:18:22;;;;;;;;;;;8.90;99.90;;;;;;5066753;28;19950;-71
2023/01/08 05:20:47;;;;;;;;;;;8.90;99.90;;;;;;5066522;28;19912;-72
2023/01/08 05:23:13;;;;;;;;;;;8.90;99.90;;;;;;5066066;28;20531;-71
2023/01/08 05:25:38;;;;;;;;;;;8.90;99.90;;;;;;5067252;28;19916;-70
2023/01/08 05:28:04;;;;;;;;;;;8.90;99.90;;;;;;5080704;28;20436;-71
2023/01/08 05:30:29;;;;;;;;;;;8.90;99.90;;;;;;5087005;28;19915;-70
2023/01/08 05:32:55;;;;;;;;;;;8.90;99.90;;;;;;5087066;28;19998;-71
2023/01/08 05:35:20;;;;;;;;;;;8.90;99.90;;;;;;5083228;28;19912;-70
2023/01/08 05:37:46;;;;;;;;;;;8.90;99.90;;;;;;5066600;28;20261;-71
2023/01/08 05:40:11;;;;;;;;;;;8.90;99.90;;;;;;5065934;28;20016;-70
2023/01/08 05:42:37;;;;;;;;;;;8.90;99.90;;;;;;5066170;28;19937;-71
2023/01/08 05:45:03;;;;;;;;;;;8.90;99.90;;;;;;5066036;28;19954;-71
2023/01/08 05:47:29;;;;;;;;;;;8.90;99.90;;;;;;5065304;28;19966;-71
2023/01/08 05:49:55;;;;;;;;;;;8.90;99.90;;;;;;5064524;28;19991;-71
2023/01/08 05:52:20;;;;;;;;;;;8.90;99.90;;;;;;5066618;28;19912;-71
2023/01/08 05:54:46;;;;;;;;;;;8.90;99.90;;;;;;5065992;28;19908;-71
2023/01/08 05:57:11;;;;;;;;;;;8.90;99.90;;;;;;5066586;28;19909;-71
2023/01/08 05:59:37;;;;;;;;;;;8.90;99.90;;;;;;5081325;28;20007;-71
2023/01/08 06:02:02;;;;;;;;;;;8.90;99.90;;;;;;5086888;28;19920;-71
2023/01/08 06:04:28;;;;;;;;;;;8.90;99.90;;;;;;5085956;28;19912;-71
2023/01/08 06:06:53;;;;;;;;;;;8.90;99.90;;;;;;5071539;28;19912;-71
2023/01/08 06:09:18;;;;;;;;;;;8.90;99.90;;;;;;5066274;28;19912;-71
2023/01/08 06:11:44;;;;;;;;;;;8.90;99.90;;;;;;5066167;28;20518;-71
2023/01/08 06:14:09;;;;;;;;;;;8.90;99.90;;;;;;5066366;28;19951;-72
2023/01/08 06:16:35;;;;;;;;;;;8.90;99.90;;;;;;5064736;28;20007;-71
2023/01/08 06:19:00;;;;;;;;;;;8.90;99.90;;;;;;5066327;28;20400;-72
2023/01/08 06:21:26;;;;;;;;;;;8.90;99.90;;;;;;5066100;28;19908;-71
2023/01/08 06:23:51;;;;;;;;;;;8.90;99.90;;;;;;5066373;28;19980;-71
2023/01/08 06:26:17;;;;;;;;;;;8.90;99.90;;;;;;5066567;28;19919;-71
2023/01/08 06:28:42;;;;;;;;;;;8.90;99.90;;;;;;5085385;28;20049;-71
2023/01/08 06:31:08;;;;;;;;;;;8.90;99.90;;;;;;5086617;28;19912;-71
2023/01/08 06:33:33;;;;;;;;;;;8.90;99.90;;;;;;5086594;28;20648;-71
2023/01/08 06:36:03;;;;;;;;;;;8.90;99.90;;;;;;5082647;28;19916;-72
2023/01/08 06:38:32;;;;;;;;;;;8.90;99.90;;;;;;5069896;28;19917;-71
2023/01/08 06:40:58;;;;;;;;;;;8.90;99.90;;;;;;5070016;28;20687;-72
2023/01/08 06:43:23;;;;;;;;;;;8.80;99.90;;;;;;5070351;28;19908;-71
2023/01/08 06:45:52;;;;;;;;;;;8.80;99.90;;;;;;5069571;28;19912;-71
2023/01/08 06:48:18;;;;;;;;;;;8.90;99.90;;;;;;5069943;28;20008;-71
2023/01/08 06:50:43;;;;;;;;;;;8.90;99.90;;;;;;5069549;28;20037;-71
2023/01/08 06:53:09;;;;;;;;;;;8.90;99.90;;;;;;5069769;28;19992;-71
2023/01/08 06:55:37;;;;;;;;;;;8.90;99.90;;;;;;5068546;28;20574;-71
2023/01/08 06:58:02;;;;;;;;;;;8.90;99.90;;;;;;5083550;28;19916;-72
2023/01/08 07:00:28;;;;;;;;;;;8.90;99.90;;;;;;5088255;28;19912;-71
2023/01/08 07:02:53;;;;;;;;;;;8.80;99.90;;;;;;5088385;28;19919;-71
2023/01/08 07:05:19;;;;;;;;;;;8.80;99.90;;;;;;5069647;28;20007;-71
2023/01/08 07:07:45;;;;;;;;;;;8.90;99.90;;;;;;5066960;28;20274;-71
2023/01/08 07:10:10;;;;;;;;;;;8.80;99.90;;;;;;5069152;28;20699;-71
2023/01/08 07:12:36;;;;;;;;;;;8.80;99.90;;;;;;5068325;28;19912;-71
2023/01/08 07:15:01;;;;;;;;;;;8.90;99.90;;;;;;5065345;28;19916;-71
2023/01/08 07:17:27;;;;;;;;;;;8.90;99.90;;;;;;5066835;28;20505;-72
2023/01/08 07:19:52;;;;;;;;;;;8.80;99.90;;;;;;5068843;28;19969;-72
2023/01/08 07:22:19;;;;;;;;;;;8.90;99.90;;;;;;5069534;28;19944;-72
2023/01/08 07:24:44;;;;;;;;;;;8.80;99.90;;;;;;5069248;28;20023;-71
2023/01/08 07:27:10;;;;;;;;;;;8.90;99.90;;;;;;5075808;28;20006;-71
2023/01/08 07:29:35;;;;;;;;;;;8.90;99.90;;;;;;5089080;28;19912;-71
2023/01/08 07:32:01;;;;;;;;;;;8.80;99.90;;;;;;5089499;28;19966;-71
2023/01/08 07:34:26;;;;;;;;;;;8.80;99.90;;;;;;5088898;28;19915;-72
2023/01/08 07:36:52;;;;;;;;;;;8.80;99.90;;;;;;5078812;28;19966;-72
2023/01/08 07:39:17;;;;;;;;;;;8.80;99.90;;;;;;5068825;28;20269;-72
2023/01/08 07:41:43;;;;;;;;;;;8.80;99.90;;;;;;5068811;28;19918;-72
2023/01/08 07:44:09;;;;;;;;;;;8.80;99.90;;;;;;5069016;28;19913;-72
2023/01/08 07:46:34;;;;;;;;;;;8.80;99.90;;;;;;5068451;28;20365;-72
2023/01/08 07:49:00;;;;;;;;;;;8.80;99.90;;;;;;5068334;28;19912;-72
2023/01/08 07:51:26;;;;;;;;;;;8.80;99.90;;;;;;5068158;28;19913;-72
2023/01/08 07:53:51;;;;;;;;;;;8.80;99.90;;;;;;5068332;28;19923;-71
2023/01/08 07:56:17;;;;;;;;;;;8.80;99.90;;;;;;5069006;28;19913;-71
2023/01/08 07:58:42;;;;;;;;;;;8.80;99.90;;;;;;5076133;28;19916;-70
2023/01/08 08:01:09;;;;;;;;;;;8.80;99.90;;;;;;5088906;28;19916;-70
2023/01/08 08:03:34;;;;;;;;;;;8.80;99.90;;;;;;5072474;28;19923;-70
2023/01/08 08:06:00;;;;;;;;;;;8.80;99.90;;;;;;5068040;28;19943;-72
2023/01/08 08:08:25;;;;;;;;;;;8.80;99.90;;;;;;5066922;28;19913;-72
2023/01/08 08:10:51;;;;;;;;;;;8.80;99.90;;;;;;5068365;28;19919;-70
2023/01/08 08:13:16;;;;;;;;;;;8.80;99.90;;;;;;5067004;28;19913;-70
2023/01/08 08:15:42;;;;;;;;;;;8.80;99.90;;;;;;5066489;28;19944;-71
2023/01/08 08:18:08;;;;;;;;;;;8.80;99.90;;;;;;5066265;28;19942;-71
2023/01/08 08:20:33;;;;;;;;;;;8.80;99.90;;;;;;5067766;28;19912;-70
2023/01/08 08:23:00;;;;;;;;;;;8.70;99.90;;;;;;5067874;28;19979;-71
2023/01/08 08:25:25;;;;;;;;;;;8.80;99.90;;;;;;5066448;28;20027;-71
2023/01/08 08:27:51;;;;;;;;;;;8.70;99.90;;;;;;5068140;28;20011;-71
2023/01/08 08:30:16;;;;;;;;;;;8.70;99.90;;;;;;5069487;28;19945;-71
2023/01/08 08:32:42;;;;;;;;;;;8.70;99.90;;;;;;5068064;28;19920;-71
2023/01/08 08:35:07;;;;;;;;;;;8.70;99.90;;;;;;5066023;28;20453;-71
2023/01/08 08:37:33;;;;;;;;;;;8.70;99.90;;;;;;5067902;28;19948;-72
2023/01/08 08:39:58;;;;;;;;;;;8.70;99.90;;;;;;5067116;28;19924;-71
2023/01/08 08:42:24;;;;;;;;;;;8.70;99.90;;;;;;5067978;28;20420;-70
2023/01/08 08:44:49;;;;;;;;;;;8.70;99.90;;;;;;5066945;28;19913;-71
2023/01/08 08:47:15;;;;;;;;;;;8.70;99.90;;;;;;5067510;28;19943;-72
2023/01/08 08:49:40;;;;;;;;;;;8.70;99.90;;;;;;5067289;28;19924;-72
2023/01/08 08:52:06;;;;;;;;;;;8.70;99.90;;;;;;5067996;28;19912;-72
2023/01/08 08:54:31;;;;;;;;;;;8.60;99.90;;;;;;5066262;28;19916;-71
2023/01/08 08:56:57;;;;;;;;;;;8.60;99.90;;;;;;5071796;28;19919;-70
2023/01/08 08:59:22;;;;;;;;;;;8.60;99.90;;;;;;5074184;28;20349;-71
2023/01/08 09:01:48;;;;;;;;;;;8.60;99.90;;;;;;5067481;28;19958;-72
2023/01/08 09:04:13;;;;;;;;;;;8.60;99.90;;;;;;5067308;28;19966;-71
2023/01/08 09:06:38;;;;;;;;;;;8.60;99.90;;;;;;5067465;28;20608;-71
2023/01/08 09:09:04;;;;;;;;;;;8.60;99.90;;;;;;5067318;28;19920;-71
2023/01/08 09:11:30;;;;;;;;;;;8.60;99.90;;;;;;5066636;28;20348;-70
2023/01/08 09:13:55;;;;;;;;;;;8.60;99.90;;;;;;5066746;28;20431;-70
2023/01/08 09:16:21;;;;;;;;;;;8.60;99.90;;;;;;5064869;28;19958;-71
2023/01/08 09:18:47;;;;;;;;;;;8.60;99.90;;;;;;5062790;28;19920;-71
2023/01/08 09:21:13;;;;;;;;;;;8.50;99.90;;;;;;5066876;28;19912;-71
2023/01/08 09:23:39;;;;;;;;;;;8.60;99.90;;;;;;5067317;28;19920;-71
2023/01/08 09:26:04;;;;;;;;;;;8.50;99.90;;;;;;5067102;28;19927;-71
2023/01/08 09:28:30;;;;;;;;;;;8.50;99.90;;;;;;5084789;28;19908;-71
2023/01/08 09:30:55;;;;;;;;;;;8.50;99.90;;;;;;5087057;28;20003;-70
2023/01/08 09:33:21;;;;;;;;;;;8.50;99.90;;;;;;5086969;28;19912;-71
2023/01/08 09:35:46;;;;;;;;;;;8.50;99.90;;;;;;5085954;28;20058;-71
2023/01/08 09:38:12;;;;;;;;;;;8.50;99.90;;;;;;5065265;28;19963;-72
2023/01/08 09:40:40;;;;;;;;;;;8.50;99.90;;;;;;5065082;28;20357;-71
2023/01/08 09:43:07;;;;;;;;;;;8.50;99.90;;;;;;5063108;28;20525;-71
2023/01/08 09:45:36;;;;;;;;;;;8.50;99.90;;;;;;5066329;28;20344;-71
2023/01/08 09:48:04;;;;;;;;;;;8.50;99.90;;;;;;5060036;28;19912;-71
2023/01/08 09:50:31;;;;;;;;;;;8.50;99.90;;;;;;5064563;28;20269;-71
2023/01/08 09:52:57;;;;;;;;;;;8.50;99.90;;;;;;5066275;28;20523;-71
2023/01/08 09:55:23;;;;;;;;;;;8.50;99.90;;;;;;5066313;28;20381;-71
2023/01/08 09:57:49;;;;;;;;;;;8.50;99.90;;;;;;5067788;28;20003;-71
2023/01/08 10:00:23;;;;;;;;;;;8.50;99.90;;;;;;5067848;28;19962;-72
2023/01/08 10:02:49;;;;;;;;;;;8.50;99.90;;;;;;5066343;28;19908;-71
2023/01/08 10:05:15;;;;;;;;;;;8.50;99.90;;;;;;5066067;28;19923;-72
2023/01/08 10:07:41;;;;;;;;;;;8.50;99.90;;;;;;5066328;28;19920;-71
2023/01/08 10:10:22;;;;;;;;;;;8.50;99.90;;;;;;5068761;28;19908;-71
2023/01/08 10:12:48;;;;;;;;;;;8.50;99.90;;;;;;5070757;28;19927;-71
2023/01/08 10:15:15;;;;;;;;;;;8.50;99.90;;;;;;5066156;28;19921;-72
2023/01/08 10:17:41;;;;;;;;;;;8.50;99.90;;;;;;5070361;28;19954;-71
2023/01/08 10:20:09;;;;;;;;;;;8.60;99.90;;;;;;5070148;28;19991;-71
2023/01/08 10:22:35;;;;;;;;;;;8.60;99.90;;;;;;5079347;28;20549;-71
2023/01/08 10:25:15;;;;;;;;;;;8.60;99.90;;;;;;5060726;28;19917;-70
2023/01/08 10:27:45;;;;;;;;;;;8.60;99.90;;;;;;5081208;28;19995;-71
2023/01/08 10:30:14;;;;;;;;;;;8.60;99.90;;;;;;5082362;28;19913;-71
2023/01/08 10:32:45;;;;;;;;;;;8.60;99.90;;;;;;5070488;28;19912;-70
2023/01/08 10:35:18;;;;;;;;;;;8.60;99.90;;;;;;5070461;28;20328;-70
2023/01/08 10:37:49;;;;;;;;;;;8.60;99.90;;;;;;5069543;28;19916;-71
2023/01/08 10:40:28;;;;;;;;;;;8.70;99.90;;;;;;5069168;28;19995;-71
2023/01/08 10:42:55;;;;;;;;;;;8.70;99.90;;;;;;5070111;28;19962;-72
2023/01/08 10:45:20;;;;;;;;;;;8.70;99.90;;;;;;5070380;28;19952;-70
2023/01/08 10:47:47;;;;;;;;;;;8.70;99.90;;;;;;5070543;28;20348;-71
2023/01/08 10:50:18;;;;;;;;;;;8.70;99.90;;;;;;5069925;28;20334;-70
2023/01/08 10:52:50;;;;;;;;;;;8.70;99.90;;;;;;5087715;28;19962;-70
2023/01/08 10:55:25;;;;;;;;;;;8.70;99.90;;;;;;5090247;28;19912;-71
2023/01/08 10:58:00;;;;;;;;;;;8.70;99.90;;;;;;5078126;28;20496;-71
2023/01/08 11:00:28;;;;;;;;;;;8.70;99.90;;;;;;5068573;28;19960;-71
2023/01/08 11:02:54;;;;;;;;;;;8.70;99.90;;;;;;5069734;28;19916;-71
2023/01/08 11:05:28;;;;;;;;;;;8.70;99.90;;;;;;5069562;28;19912;-71
2023/01/08 11:07:57;;;;;;;;;;;8.70;99.90;;;;;;5069727;28;20384;-70
2023/01/08 11:10:24;;;;;;;;;;;8.80;99.90;;;;;;5069229;28;19916;-70
2023/01/08 11:12:54;;;;;;;;;;;8.70;99.90;;;;;;5069538;28;19919;-70
2023/01/08 11:15:19;;;;;;;;;;;8.70;99.90;;;;;;5065116;28;19928;-71
2023/01/08 11:17:45;;;;;;;;;;;8.80;99.90;;;;;;5069274;28;19926;-71
2023/01/08 11:20:19;;;;;;;;;;;8.80;99.90;;;;;;5068146;28;20274;-71
2023/01/08 11:22:44;;;;;;;;;;;8.70;99.90;;;;;;5087246;28;19999;-71
2023/01/08 11:25:16;;;;;;;;;;;8.80;99.90;;;;;;5089499;28;20081;-70
2023/01/08 11:27:43;;;;;;;;;;;8.80;99.90;;;;;;5078772;28;20544;-72
2023/01/08 11:30:09;;;;;;;;;;;8.80;99.90;;;;;;5069116;28;19940;-71
2023/01/08 11:32:46;;;;;;;;;;;8.80;99.90;;;;;;5069635;28;19993;-71
2023/01/08 11:35:30;;;;;;;;;;;8.80;99.90;;;;;;5068406;28;20487;-70
2023/01/08 11:37:58;;;;;;;;;;;8.90;99.90;;;;;;5069087;28;19959;-71
2023/01/08 11:40:39;;;;;;;;;;;8.90;99.90;;;;;;5067784;28;20349;-71
2023/01/08 11:43:23;;;;;;;;;;;9.00;99.90;;;;;;5064818;28;20007;-71
2023/01/08 11:46:11;;;;;;;;;;;9.00;99.90;;;;;;5066136;28;19919;-71
2023/01/08 11:48:37;;;;;;;;;;;9.10;99.90;;;;;;5066228;28;19913;-71
2023/01/08 11:51:02;;;;;;;;;;;9.10;99.90;;;;;;5072085;28;19919;-71
2023/01/08 11:53:27;;;;;;;;;;;9.20;99.90;;;;;;5089056;28;19912;-71
2023/01/08 11:56:12;;;;;;;;;;;9.20;99.90;;;;;;5089184;28;19915;-70
2023/01/08 11:58:40;;;;;;;;;;;9.20;99.90;;;;;;5070382;28;19916;-71
2023/01/08 12:01:05;;;;;;;;;;;9.30;99.90;;;;;;5066586;28;19916;-70
2023/01/08 12:03:31;;;;;;;;;;;9.20;99.90;;;;;;5068206;28;19916;-71
2023/01/08 12:06:02;;;;;;;;;;;9.30;99.90;;;;;;5068072;28;19912;-72
2023/01/08 12:08:36;;;;;;;;;;;9.30;99.90;;;;;;5067705;28;19912;-71
2023/01/08 12:11:02;;;;;;;;;;;9.30;99.90;;;;;;5067167;28;19919;-72
2023/01/08 12:13:46;;;;;;;;;;;9.40;99.90;;;;;;5066478;28;20063;-70
2023/01/08 12:16:18;;;;;;;;;;;9.40;99.90;;;;;;5063169;28;19908;-72
2023/01/08 12:18:56;;;;;;;;;;;9.40;99.90;;;;;;5067239;28;20392;-71
2023/01/08 12:21:27;;;;;;;;;;;9.50;99.90;;;;;;5072266;28;19912;-70
2023/01/08 12:23:58;;;;;;;;;;;9.50;99.90;;;;;;5067190;28;19999;-71
2023/01/08 12:26:42;;;;;;;;;;;9.50;99.90;;;;;;5067345;28;19919;-72
2023/01/08 12:29:11;;;;;;;;;;;9.50;99.90;;;;;;5087558;28;20307;-71
2023/01/08 12:31:39;;;;;;;;;;;9.60;99.90;;;;;;5086251;28;19943;-71
2023/01/08 12:34:17;;;;;;;;;;;9.60;99.90;;;;;;5086582;28;20426;-71
2023/01/08 12:36:46;;;;;;;;;;;9.60;99.90;;;;;;5077557;28;19966;-71
2023/01/08 12:39:14;;;;;;;;;;;9.60;99.90;;;;;;5065219;28;19916;-71
2023/01/08 12:41:41;;;;;;;;;;;9.60;99.90;;;;;;5065285;28;20537;-72
2023/01/08 12:44:10;;;;;;;;;;;9.60;99.90;;;;;;5067278;28;20417;-72
2023/01/08 12:46:42;;;;;;;;;;;9.70;99.90;;;;;;5067024;28;19927;-71
2023/01/08 12:49:10;;;;;;;;;;;9.70;99.90;;;;;;5067113;28;19940;-70
2023/01/08 12:51:54;;;;;;;;;;;9.60;99.90;;;;;;5074795;28;19935;-72
2023/01/08 12:54:22;;;;;;;;;;;9.60;99.90;;;;;;5087275;28;19919;-71
2023/01/08 12:57:14;;;;;;;;;;;9.60;99.90;;;;;;5083842;28;19919;-72
2023/01/08 12:59:39;;;;;;;;;;;9.60;99.90;;;;;;5061822;28;19966;-71
2023/01/08 13:02:14;;;;;;;;;;;9.60;99.90;;;;;;5066140;28;20582;-72
2023/01/08 13:04:43;;;;;;;;;;;9.60;99.90;;;;;;5064248;28;20039;-72
2023/01/08 13:07:41;;;;;;;;;;;9.50;99.90;;;;;;5066128;28;19936;-71
2023/01/08 13:10:17;;;;;;;;;;;9.50;99.90;;;;;;5042034;28;20392;-70
2023/01/08 13:12:48;;;;;;;;;;;9.50;99.90;;;;;;5065302;28;19920;-71
2023/01/08 13:15:21;;;;;;;;;;;9.50;99.90;;;;;;5065023;28;19920;-70
2023/01/08 13:17:47;;;;;;;;;;;9.40;99.90;;;;;;5064814;28;19947;-71
2023/01/08 13:20:18;;;;;;;;;;;9.40;99.90;;;;;;5065215;28;19917;-71
2023/01/08 13:22:50;;;;;;;;;;;9.40;99.90;;;;;;5066383;28;19919;-70
2023/01/08 13:25:17;;;;;;;;;;;9.40;99.90;;;;;;5063696;28;20128;-70
2023/01/08 13:27:43;;;;;;;;;;;9.40;99.90;;;;;;5066235;28;20512;-71
2023/01/08 13:30:27;;;;;;;;;;;9.30;99.90;;;;;;5065581;28;19909;-71
2023/01/08 13:32:53;;;;;;;;;;;9.30;99.90;;;;;;5065577;28;19912;-71
2023/01/08 13:35:21;;;;;;;;;;;9.30;99.90;;;;;;5064951;28;19912;-71
2023/01/08 13:37:48;;;;;;;;;;;9.30;99.90;;;;;;5065517;28;20410;-71
2023/01/08 13:40:37;;;;;;;;;;;9.30;99.90;;;;;;5062413;28;19913;-70
2023/01/08 13:43:04;;;;;;;;;;;9.30;99.90;;;;;;5060452;28;19917;-70
2023/01/08 13:45:30;;;;;;;;;;;9.30;99.90;;;;;;5065744;28;19966;-71
2023/01/08 13:47:55;;;;;;;;;;;9.20;99.90;;;;;;5065861;28;20574;-71
2023/01/08 13:50:23;;;;;;;;;;;9.20;99.90;;;;;;5065407;28;19969;-70
2023/01/08 13:52:59;;;;;;;;;;;9.20;99.90;;;;;;5064722;28;19963;-71
2023/01/08 13:55:27;;;;;;;;;;;9.20;99.90;;;;;;5065117;28;19917;-71
2023/01/08 13:57:56;;;;;;;;;;;9.20;99.90;;;;;;5078040;28;19916;-70
2023/01/08 14:00:43;;;;;;;;;;;9.20;99.90;;;;;;5066463;28;19916;-71
2023/01/08 14:03:27;;;;;;;;;;;9.10;99.90;;;;;;5063721;28;19919;-71
2023/01/08 14:06:11;;;;;;;;;;;9.10;99.90;;;;;;5065089;28;19912;-71
2023/01/08 14:08:47;;;;;;;;;;;9.10;99.90;;;;;;5068453;28;20140;-71
2023/01/08 14:11:12;;;;;;;;;;;9.10;99.90;;;;;;5085150;28;20273;-71
2023/01/08 14:13:38;;;;;;;;;;;9.10;99.90;;;;;;5084443;28;19916;-70
2023/01/08 14:16:04;;;;;;;;;;;9.10;99.90;;;;;;5068812;28;19912;-71
2023/01/08 14:18:30;;;;;;;;;;;9.10;99.90;;;;;;5065416;28;20018;-71
2023/01/08 14:20:56;;;;;;;;;;;9.00;99.90;;;;;;5068307;28;20632;-71
2023/01/08 14:23:30;;;;;;;;;;;9.00;99.90;;;;;;5086386;28;19954;-70
2023/01/08 14:25:58;;;;;;;;;;;9.00;99.90;;;;;;5086959;28;20432;-70
2023/01/08 14:28:23;;;;;;;;;;;9.00;99.90;;;;;;5070155;28;20435;-71
2023/01/08 14:30:50;;;;;;;;;;;9.00;99.90;;;;;;5066284;28;19912;-71
2023/01/08 14:33:16;;;;;;;;;;;9.00;99.90;;;;;;5066548;28;19931;-72
2023/01/08 14:35:42;;;;;;;;;;;9.00;99.90;;;;;;5066191;28;20354;-71